sensor_id;sensor_type;location;lat;lon;timestamp;temperature;humidity
31661;DHT22;18267;52.234;7.444;2023-04-03T00:01:13;5.20;99.90
31661;DHT22;18267;52.234;7.444;2023-04-03T00:03:38;5.20;99.90
31661;DHT22;18267;52.234;7.444;2023-04-03T00:06:04;5.20;99.90
31661;DHT22;18267;52.234;7.444;2023-04-03T00:08:32;5.20;99.90
31661;DHT22;18267;52.234;7.444;2023-04-03T00:10:58;5.20;99.90
31661;DHT22;18267;52.234;7.444;2023-04-03T00:13:24;5.20;99.90
31661;DHT22;18267;52.234;7.444;2023-04-03T00:15:51;5.10;99.90
31661;DHT22;18267;52.234;7.444;2023-04-03T00:18:17;5.10;99.90
31661;DHT22;18267;52.234;7.444;2023-04-03T00:20:43;5.10;99.90
31661;DHT22;18267;52.234;7.444;2023-04-03T00:23:08;4.90;99.90
31661;DHT22;18267;52.234;7.444;2023-04-03T00:25:34;4.90;99.90
31661;DHT22;18267;52.234;7.444;2023-04-03T00:28:00;4.90;99.90
31661;DHT22;18267;52.234;7.444;2023-04-03T00:30:26;4.90;99.90
31661;DHT22;18267;52.234;7.444;2023-04-03T00:32:52;4.90;99.90
31661;DHT22;18267;52.234;7.444;2023-04-03T00:35:19;4.90;99.90
31661;DHT22;18267;52.234;7.444;2023-04-03T00:37:45;5.00;99.90
31661;DHT22;18267;52.234;7.444;2023-04-03T00:40:12;5.00;99.90
31661;DHT22;18267;52.234;7.444;2023-04-03T00:42:40;5.00;99.90
31661;DHT22;18267;52.234;7.444;2023-04-03T00:47:41;4.90;99.90
31661;DHT22;18267;52.234;7.444;2023-04-03T00:50:07;4.90;99.90
31661;DHT22;18267;52.234;7.444;2023-04-03T00:52:33;4.90;99.90
31661;DHT22;18267;52.234;7.444;2023-04-03T00:55:03;4.90;99.90
31661;DHT22;18267;52.234;7.444;2023-04-03T00:57:30;4.90;99.90
31661;DHT22;18267;52.234;7.444;2023-04-03T01:00:03;5.00;99.90
31661;DHT22;18267;52.234;7.444;2023-04-03T01:02:29;5.00;99.90
31661;DHT22;18267;52.234;7.444;2023-04-03T01:04:55;5.00;99.90
31661;DHT22;18267;52.234;7.444;2023-04-03T01:07:27;4.90;99.90
31661;DHT22;18267;52.234;7.444;2023-04-03T01:09:57;4.90;99.90
31661;DHT22;18267;52.234;7.444;2023-04-03T01:12:27;4.90;99.90
31661;DHT22;18267;52.234;7.444;2023-04-03T01:14:58;4.80;99.90
31661;DHT22;18267;52.234;7.444;2023-04-03T01:17:36;4.70;99.90
31661;DHT22;18267;52.234;7.444;2023-04-03T01:22:55;4.60;99.90
31661;DHT22;18267;52.234;7.444;2023-04-03T01:25:21;4.60;99.90
31661;DHT22;18267;52.234;7.444;2023-04-03T01:27:47;4.60;99.90
31661;DHT22;18267;52.234;7.444;2023-04-03T01:30:14;4.50;99.90
31661;DHT22;18267;52.234;7.444;2023-04-03T01:32:41;4.50;99.90
31661;DHT22;18267;52.234;7.444;2023-04-03T01:35:08;4.50;99.90
31661;DHT22;18267;52.234;7.444;2023-04-03T01:37:35;4.30;99.90
31661;DHT22;18267;52.234;7.444;2023-04-03T01:40:00;4.30;99.90
31661;DHT22;18267;52.234;7.444;2023-04-03T01:42:26;4.40;99.90
31661;DHT22;18267;52.234;7.444;2023-04-03T01:44:51;4.40;99.90
31661;DHT22;18267;52.234;7.444;2023-04-03T01:47:17;4.50;99.90
31661;DHT22;18267;52.234;7.444;2023-04-03T01:49:43;4.50;99.90
31661;DHT22;18267;52.234;7.444;2023-04-03T01:52:08;4.40;99.90
31661;DHT22;18267;52.234;7.444;2023-04-03T01:54:34;4.50;99.90
31661;DHT22;18267;52.234;7.444;2023-04-03T01:56:59;4.50;99.90
31661;DHT22;18267;52.234;7.444;2023-04-03T01:59:25;4.50;99.90
31661;DHT22;18267;52.234;7.444;2023-04-03T02:01:51;4.60;99.90
31661;DHT22;18267;52.234;7.444;2023-04-03T02:04:16;4.50;99.90
31661;DHT22;18267;52.234;7.444;2023-04-03T02:06:42;4.50;99.90
31661;DHT22;18267;52.234;7.444;2023-04-03T02:09:07;4.50;99.90
31661;DHT22;18267;52.234;7.444;2023-04-03T02:11:33;4.50;99.90
31661;DHT22;18267;52.234;7.444;2023-04-03T02:13:58;4.50;99.90
31661;DHT22;18267;52.234;7.444;2023-04-03T02:16:24;4.40;99.90
31661;DHT22;18267;52.234;7.444;2023-04-03T02:18:50;4.40;99.90
31661;DHT22;18267;52.234;7.444;2023-04-03T02:21:16;4.40;99.90
31661;DHT22;18267;52.234;7.444;2023-04-03T02:23:41;4.40;99.90
31661;DHT22;18267;52.234;7.444;2023-04-03T02:26:10;4.30;99.90
31661;DHT22;18267;52.234;7.444;2023-04-03T02:28:37;4.20;99.90
31661;DHT22;18267;52.234;7.444;2023-04-03T02:31:03;4.10;99.90
31661;DHT22;18267;52.234;7.444;2023-04-03T02:33:30;4.10;99.90
31661;DHT22;18267;52.234;7.444;2023-04-03T02:35:56;4.10;99.90
31661;DHT22;18267;52.234;7.444;2023-04-03T02:38:22;4.10;99.90
31661;DHT22;18267;52.234;7.444;2023-04-03T02:40:48;4.10;99.90
31661;DHT22;18267;52.234;7.444;2023-04-03T02:43:14;4.00;99.90
31661;DHT22;18267;52.234;7.444;2023-04-03T02:45:40;4.10;99.90
31661;DHT22;18267;52.234;7.444;2023-04-03T02:48:05;4.00;99.90
31661;DHT22;18267;52.234;7.444;2023-04-03T02:50:31;3.90;99.90
31661;DHT22;18267;52.234;7.444;2023-04-03T02:52:56;3.90;99.90
31661;DHT22;18267;52.234;7.444;2023-04-03T02:55:22;3.80;99.90
31661;DHT22;18267;52.234;7.444;2023-04-03T02:57:47;3.90;99.90
31661;DHT22;18267;52.234;7.444;2023-04-03T03:00:13;3.90;99.90
31661;DHT22;18267;52.234;7.444;2023-04-03T03:02:40;3.80;99.90
31661;DHT22;18267;52.234;7.444;2023-04-03T03:05:06;3.80;99.90
31661;DHT22;18267;52.234;7.444;2023-04-03T03:07:32;3.80;99.90
31661;DHT22;18267;52.234;7.444;2023-04-03T03:09:57;3.80;99.90
31661;DHT22;18267;52.234;7.444;2023-04-03T03:12:23;3.70;99.90
31661;DHT22;18267;52.234;7.444;2023-04-03T03:14:50;3.60;99.90
31661;DHT22;18267;52.234;7.444;2023-04-03T03:17:16;3.60;99.90
31661;DHT22;18267;52.234;7.444;2023-04-03T03:19:43;3.60;99.90
31661;DHT22;18267;52.234;7.444;2023-04-03T03:22:09;3.50;99.90
31661;DHT22;18267;52.234;7.444;2023-04-03T03:24:34;3.60;99.90
31661;DHT22;18267;52.234;7.444;2023-04-03T03:27:00;3.60;99.90
31661;DHT22;18267;52.234;7.444;2023-04-03T03:29:25;3.50;99.90
31661;DHT22;18267;52.234;7.444;2023-04-03T03:31:51;3.60;99.90
31661;DHT22;18267;52.234;7.444;2023-04-03T03:34:16;3.60;99.90
31661;DHT22;18267;52.234;7.444;2023-04-03T03:36:42;3.50;99.90
31661;DHT22;18267;52.234;7.444;2023-04-03T03:39:08;3.40;99.90
31661;DHT22;18267;52.234;7.444;2023-04-03T03:41:33;3.40;99.90
31661;DHT22;18267;52.234;7.444;2023-04-03T03:43:59;3.40;99.90
31661;DHT22;18267;52.234;7.444;2023-04-03T03:46:24;3.30;99.90
31661;DHT22;18267;52.234;7.444;2023-04-03T03:48:50;3.30;99.90
31661;DHT22;18267;52.234;7.444;2023-04-03T03:51:15;3.30;99.90
31661;DHT22;18267;52.234;7.444;2023-04-03T03:53:41;3.30;99.90
31661;DHT22;18267;52.234;7.444;2023-04-03T03:56:07;3.40;99.90
31661;DHT22;18267;52.234;7.444;2023-04-03T03:58:33;3.20;99.90
31661;DHT22;18267;52.234;7.444;2023-04-03T04:01:06;3.20;99.90
31661;DHT22;18267;52.234;7.444;2023-04-03T04:03:31;3.10;99.90
31661;DHT22;18267;52.234;7.444;2023-04-03T04:05:57;3.00;99.90
31661;DHT22;18267;52.234;7.444;2023-04-03T04:08:23;3.00;99.90
31661;DHT22;18267;52.234;7.444;2023-04-03T04:10:49;3.00;99.90
31661;DHT22;18267;52.234;7.444;2023-04-03T04:13:14;3.10;99.90
31661;DHT22;18267;52.234;7.444;2023-04-03T04:15:40;3.10;99.90
31661;DHT22;18267;52.234;7.444;2023-04-03T04:18:06;3.10;99.90
31661;DHT22;18267;52.234;7.444;2023-04-03T04:20:31;3.10;99.90
31661;DHT22;18267;52.234;7.444;2023-04-03T04:22:57;2.90;99.90
31661;DHT22;18267;52.234;7.444;2023-04-03T04:25:22;2.90;99.90
31661;DHT22;18267;52.234;7.444;2023-04-03T04:27:48;2.90;99.90
31661;DHT22;18267;52.234;7.444;2023-04-03T04:30:14;2.90;99.90
31661;DHT22;18267;52.234;7.444;2023-04-03T04:32:39;2.80;99.90
31661;DHT22;18267;52.234;7.444;2023-04-03T04:35:05;2.80;99.90
31661;DHT22;18267;52.234;7.444;2023-04-03T04:37:31;2.80;99.90
31661;DHT22;18267;52.234;7.444;2023-04-03T04:39:57;2.80;99.90
31661;DHT22;18267;52.234;7.444;2023-04-03T04:42:22;2.70;99.90
31661;DHT22;18267;52.234;7.444;2023-04-03T04:44:48;2.70;99.90
31661;DHT22;18267;52.234;7.444;2023-04-03T04:47:13;2.70;99.90
31661;DHT22;18267;52.234;7.444;2023-04-03T04:49:39;2.70;99.90
31661;DHT22;18267;52.234;7.444;2023-04-03T04:52:04;2.70;99.90
31661;DHT22;18267;52.234;7.444;2023-04-03T04:54:30;2.80;99.90
31661;DHT22;18267;52.234;7.444;2023-04-03T04:56:56;2.70;99.90
31661;DHT22;18267;52.234;7.444;2023-04-03T04:59:29;2.70;99.90
31661;DHT22;18267;52.234;7.444;2023-04-03T05:01:55;2.80;99.90
31661;DHT22;18267;52.234;7.444;2023-04-03T05:04:21;2.80;99.90
31661;DHT22;18267;52.234;7.444;2023-04-03T05:06:53;2.80;99.90
31661;DHT22;18267;52.234;7.444;2023-04-03T05:09:19;2.80;99.90
31661;DHT22;18267;52.234;7.444;2023-04-03T05:11:45;2.90;99.90
31661;DHT22;18267;52.234;7.444;2023-04-03T05:14:12;2.80;99.90
31661;DHT22;18267;52.234;7.444;2023-04-03T05:16:37;2.80;99.90
31661;DHT22;18267;52.234;7.444;2023-04-03T05:19:04;2.80;99.90
31661;DHT22;18267;52.234;7.444;2023-04-03T05:21:30;2.80;99.90
31661;DHT22;18267;52.234;7.444;2023-04-03T05:23:59;2.90;99.90
31661;DHT22;18267;52.234;7.444;2023-04-03T05:26:31;3.00;99.90
31661;DHT22;18267;52.234;7.444;2023-04-03T05:28:57;3.00;99.90
31661;DHT22;18267;52.234;7.444;2023-04-03T05:31:23;2.90;99.90
31661;DHT22;18267;52.234;7.444;2023-04-03T05:33:49;2.90;99.90
31661;DHT22;18267;52.234;7.444;2023-04-03T05:36:16;2.90;99.90
31661;DHT22;18267;52.234;7.444;2023-04-03T05:38:41;2.90;99.90
31661;DHT22;18267;52.234;7.444;2023-04-03T05:41:08;2.90;99.90
31661;DHT22;18267;52.234;7.444;2023-04-03T05:43:34;3.00;99.90
31661;DHT22;18267;52.234;7.444;2023-04-03T05:46:03;3.00;99.90
31661;DHT22;18267;52.234;7.444;2023-04-03T05:48:28;3.00;99.90
31661;DHT22;18267;52.234;7.444;2023-04-03T05:50:55;3.00;99.90
31661;DHT22;18267;52.234;7.444;2023-04-03T05:53:23;3.10;99.90
31661;DHT22;18267;52.234;7.444;2023-04-03T05:55:50;3.10;99.90
31661;DHT22;18267;52.234;7.444;2023-04-03T05:58:16;3.20;99.90
31661;DHT22;18267;52.234;7.444;2023-04-03T06:00:41;3.20;99.90
31661;DHT22;18267;52.234;7.444;2023-04-03T06:03:10;3.30;99.90
31661;DHT22;18267;52.234;7.444;2023-04-03T06:05:36;3.40;99.90
31661;DHT22;18267;52.234;7.444;2023-04-03T06:08:02;3.40;99.90
31661;DHT22;18267;52.234;7.444;2023-04-03T06:10:28;3.50;99.90
31661;DHT22;18267;52.234;7.444;2023-04-03T06:12:54;3.50;99.90
31661;DHT22;18267;52.234;7.444;2023-04-03T06:15:20;3.40;99.90
31661;DHT22;18267;52.234;7.444;2023-04-03T06:17:46;3.40;99.90
31661;DHT22;18267;52.234;7.444;2023-04-03T06:20:12;3.40;99.90
31661;DHT22;18267;52.234;7.444;2023-04-03T06:22:38;3.50;99.90
31661;DHT22;18267;52.234;7.444;2023-04-03T06:25:04;3.50;99.90
31661;DHT22;18267;52.234;7.444;2023-04-03T06:27:30;3.50;99.90
31661;DHT22;18267;52.234;7.444;2023-04-03T06:29:56;3.50;99.90
31661;DHT22;18267;52.234;7.444;2023-04-03T06:32:21;3.70;99.90
31661;DHT22;18267;52.234;7.444;2023-04-03T06:34:47;3.80;99.90
31661;DHT22;18267;52.234;7.444;2023-04-03T06:37:20;3.80;99.90
31661;DHT22;18267;52.234;7.444;2023-04-03T06:39:46;3.80;99.90
31661;DHT22;18267;52.234;7.444;2023-04-03T06:42:12;3.80;99.90
31661;DHT22;18267;52.234;7.444;2023-04-03T06:44:38;3.80;99.90
31661;DHT22;18267;52.234;7.444;2023-04-03T06:47:04;3.80;99.90
31661;DHT22;18267;52.234;7.444;2023-04-03T06:49:29;3.80;99.90
31661;DHT22;18267;52.234;7.444;2023-04-03T06:51:56;3.90;99.90
31661;DHT22;18267;52.234;7.444;2023-04-03T06:54:22;3.90;99.90
31661;DHT22;18267;52.234;7.444;2023-04-03T06:56:48;4.00;99.90
31661;DHT22;18267;52.234;7.444;2023-04-03T06:59:13;4.00;99.90
31661;DHT22;18267;52.234;7.444;2023-04-03T07:01:40;4.00;99.90
31661;DHT22;18267;52.234;7.444;2023-04-03T07:04:06;4.00;99.90
31661;DHT22;18267;52.234;7.444;2023-04-03T07:06:31;4.00;99.90
31661;DHT22;18267;52.234;7.444;2023-04-03T07:08:59;4.10;99.90
31661;DHT22;18267;52.234;7.444;2023-04-03T07:11:25;4.10;99.90
31661;DHT22;18267;52.234;7.444;2023-04-03T07:13:51;4.00;99.90
31661;DHT22;18267;52.234;7.444;2023-04-03T07:16:19;4.10;99.90
31661;DHT22;18267;52.234;7.444;2023-04-03T07:18:45;4.20;99.90
31661;DHT22;18267;52.234;7.444;2023-04-03T07:21:12;4.20;99.90
31661;DHT22;18267;52.234;7.444;2023-04-03T07:23:38;4.30;99.90
31661;DHT22;18267;52.234;7.444;2023-04-03T07:26:04;4.40;99.90
31661;DHT22;18267;52.234;7.444;2023-04-03T07:28:33;4.50;99.90
31661;DHT22;18267;52.234;7.444;2023-04-03T07:33:26;4.60;99.90
31661;DHT22;18267;52.234;7.444;2023-04-03T07:35:52;4.60;99.90
31661;DHT22;18267;52.234;7.444;2023-04-03T07:38:18;4.70;99.90
31661;DHT22;18267;52.234;7.444;2023-04-03T07:40:48;4.70;99.90
31661;DHT22;18267;52.234;7.444;2023-04-03T07:43:16;4.80;99.90
31661;DHT22;18267;52.234;7.444;2023-04-03T07:45:42;4.80;99.90
31661;DHT22;18267;52.234;7.444;2023-04-03T07:48:09;4.80;99.90
31661;DHT22;18267;52.234;7.444;2023-04-03T07:50:35;4.80;99.90
31661;DHT22;18267;52.234;7.444;2023-04-03T07:53:02;4.90;99.90
31661;DHT22;18267;52.234;7.444;2023-04-03T07:55:28;4.90;99.90
31661;DHT22;18267;52.234;7.444;2023-04-03T07:57:53;5.00;99.90
31661;DHT22;18267;52.234;7.444;2023-04-03T08:00:19;5.10;99.90
31661;DHT22;18267;52.234;7.444;2023-04-03T08:02:45;5.10;99.90
31661;DHT22;18267;52.234;7.444;2023-04-03T08:05:17;5.20;99.90
31661;DHT22;18267;52.234;7.444;2023-04-03T08:07:42;5.20;99.90
31661;DHT22;18267;52.234;7.444;2023-04-03T08:10:08;5.10;99.90
31661;DHT22;18267;52.234;7.444;2023-04-03T08:12:34;5.00;99.90
31661;DHT22;18267;52.234;7.444;2023-04-03T08:15:00;5.00;99.90
31661;DHT22;18267;52.234;7.444;2023-04-03T08:17:26;5.00;99.90
31661;DHT22;18267;52.234;7.444;2023-04-03T08:19:52;5.00;99.90
31661;DHT22;18267;52.234;7.444;2023-04-03T08:22:17;5.20;99.90
31661;DHT22;18267;52.234;7.444;2023-04-03T08:24:45;5.30;99.90
31661;DHT22;18267;52.234;7.444;2023-04-03T08:27:11;5.30;99.90
31661;DHT22;18267;52.234;7.444;2023-04-03T08:29:36;5.30;98.90
31661;DHT22;18267;52.234;7.444;2023-04-03T08:32:04;5.30;98.60
31661;DHT22;18267;52.234;7.444;2023-04-03T08:34:29;5.40;99.30
31661;DHT22;18267;52.234;7.444;2023-04-03T08:36:55;5.50;98.80
31661;DHT22;18267;52.234;7.444;2023-04-03T08:39:21;5.60;98.70
31661;DHT22;18267;52.234;7.444;2023-04-03T08:41:46;5.70;97.40
31661;DHT22;18267;52.234;7.444;2023-04-03T08:44:24;5.70;97.20
31661;DHT22;18267;52.234;7.444;2023-04-03T08:49:43;5.90;96.10
31661;DHT22;18267;52.234;7.444;2023-04-03T08:52:18;6.00;96.40
31661;DHT22;18267;52.234;7.444;2023-04-03T08:55:18;5.90;95.10
31661;DHT22;18267;52.234;7.444;2023-04-03T08:57:45;5.90;95.70
31661;DHT22;18267;52.234;7.444;2023-04-03T09:00:21;6.00;95.00
31661;DHT22;18267;52.234;7.444;2023-04-03T09:02:50;6.00;93.80
31661;DHT22;18267;52.234;7.444;2023-04-03T09:05:24;6.00;94.50
31661;DHT22;18267;52.234;7.444;2023-04-03T09:08:07;6.00;94.00
31661;DHT22;18267;52.234;7.444;2023-04-03T09:10:38;6.00;94.50
31661;DHT22;18267;52.234;7.444;2023-04-03T09:13:33;6.00;93.70
31661;DHT22;18267;52.234;7.444;2023-04-03T09:16:10;6.00;95.30
31661;DHT22;18267;52.234;7.444;2023-04-03T09:18:45;6.20;94.70
31661;DHT22;18267;52.234;7.444;2023-04-03T09:21:37;6.40;94.60
31661;DHT22;18267;52.234;7.444;2023-04-03T09:24:05;6.50;94.80
31661;DHT22;18267;52.234;7.444;2023-04-03T09:26:53;6.40;94.30
31661;DHT22;18267;52.234;7.444;2023-04-03T09:29:22;6.40;95.00
31661;DHT22;18267;52.234;7.444;2023-04-03T09:31:52;6.40;94.50
31661;DHT22;18267;52.234;7.444;2023-04-03T09:34:27;6.40;93.20
31661;DHT22;18267;52.234;7.444;2023-04-03T09:37:02;6.50;93.40
31661;DHT22;18267;52.234;7.444;2023-04-03T09:39:55;6.60;92.50
31661;DHT22;18267;52.234;7.444;2023-04-03T09:42:23;6.70;91.20
31661;DHT22;18267;52.234;7.444;2023-04-03T09:45:04;6.70;92.10
31661;DHT22;18267;52.234;7.444;2023-04-03T09:47:32;6.80;92.00
31661;DHT22;18267;52.234;7.444;2023-04-03T09:52:46;7.00;91.50
31661;DHT22;18267;52.234;7.444;2023-04-03T09:55:19;7.00;92.20
31661;DHT22;18267;52.234;7.444;2023-04-03T09:57:47;7.00;92.20
31661;DHT22;18267;52.234;7.444;2023-04-03T10:00:33;7.10;92.90
31661;DHT22;18267;52.234;7.444;2023-04-03T10:03:00;7.10;92.50
31661;DHT22;18267;52.234;7.444;2023-04-03T10:05:35;7.10;92.20
31661;DHT22;18267;52.234;7.444;2023-04-03T10:10:34;7.10;94.10
31661;DHT22;18267;52.234;7.444;2023-04-03T10:13:19;7.10;93.30
31661;DHT22;18267;52.234;7.444;2023-04-03T10:15:51;7.20;92.90
31661;DHT22;18267;52.234;7.444;2023-04-03T10:18:43;7.30;92.70
31661;DHT22;18267;52.234;7.444;2023-04-03T10:24:13;7.30;92.80
31661;DHT22;18267;52.234;7.444;2023-04-03T10:27:13;7.20;93.20
31661;DHT22;18267;52.234;7.444;2023-04-03T10:30:17;7.10;94.70
31661;DHT22;18267;52.234;7.444;2023-04-03T10:41:36;7.00;95.00
31661;DHT22;18267;52.234;7.444;2023-04-03T10:46:53;7.10;94.10
31661;DHT22;18267;52.234;7.444;2023-04-03T10:52:22;7.10;94.20
31661;DHT22;18267;52.234;7.444;2023-04-03T10:57:40;7.20;94.00
31661;DHT22;18267;52.234;7.444;2023-04-03T11:00:21;7.30;94.00
31661;DHT22;18267;52.234;7.444;2023-04-03T11:03:16;7.20;94.40
31661;DHT22;18267;52.234;7.444;2023-04-03T11:05:45;7.40;94.80
31661;DHT22;18267;52.234;7.444;2023-04-03T11:10:48;7.30;94.40
31661;DHT22;18267;52.234;7.444;2023-04-03T11:13:28;7.20;94.40
31661;DHT22;18267;52.234;7.444;2023-04-03T11:15:57;7.20;94.90
31661;DHT22;18267;52.234;7.444;2023-04-03T11:18:42;7.20;94.90
31661;DHT22;18267;52.234;7.444;2023-04-03T11:21:31;7.20;94.80
31661;DHT22;18267;52.234;7.444;2023-04-03T11:24:03;7.40;96.00
31661;DHT22;18267;52.234;7.444;2023-04-03T11:26:37;7.40;94.80
31661;DHT22;18267;52.234;7.444;2023-04-03T11:29:12;7.40;95.60
31661;DHT22;18267;52.234;7.444;2023-04-03T11:34:24;7.40;95.80
31661;DHT22;18267;52.234;7.444;2023-04-03T11:36:56;7.30;93.90
31661;DHT22;18267;52.234;7.444;2023-04-03T11:39:31;7.20;94.40
31661;DHT22;18267;52.234;7.444;2023-04-03T11:42:16;7.20;94.40
31661;DHT22;18267;52.234;7.444;2023-04-03T11:44:48;7.30;94.90
31661;DHT22;18267;52.234;7.444;2023-04-03T11:47:43;7.40;94.90
31661;DHT22;18267;52.234;7.444;2023-04-03T11:53:02;7.80;94.50
31661;DHT22;18267;52.234;7.444;2023-04-03T12:11:22;8.20;93.70
31661;DHT22;18267;52.234;7.444;2023-04-03T12:22:04;8.50;92.70
31661;DHT22;18267;52.234;7.444;2023-04-03T12:24:35;8.20;91.90
31661;DHT22;18267;52.234;7.444;2023-04-03T12:29:53;8.00;93.30
31661;DHT22;18267;52.234;7.444;2023-04-03T12:46:15;8.50;93.10
31661;DHT22;18267;52.234;7.444;2023-04-03T12:48:49;8.70;93.10
31661;DHT22;18267;52.234;7.444;2023-04-03T12:51:40;8.60;93.60
31661;DHT22;18267;52.234;7.444;2023-04-03T12:54:30;8.50;93.60
31661;DHT22;18267;52.234;7.444;2023-04-03T12:57:12;8.60;94.60
31661;DHT22;18267;52.234;7.444;2023-04-03T12:59:38;8.50;93.90
31661;DHT22;18267;52.234;7.444;2023-04-03T13:04:49;8.00;94.10
31661;DHT22;18267;52.234;7.444;2023-04-03T13:07:25;7.80;94.20
31661;DHT22;18267;52.234;7.444;2023-04-03T13:10:20;7.70;94.70
31661;DHT22;18267;52.234;7.444;2023-04-03T13:12:57;7.60;95.00
31661;DHT22;18267;52.234;7.444;2023-04-03T13:15:39;7.60;94.60
31661;DHT22;18267;52.234;7.444;2023-04-03T13:20:49;7.60;94.50
31661;DHT22;18267;52.234;7.444;2023-04-03T13:23:17;7.70;94.50
31661;DHT22;18267;52.234;7.444;2023-04-03T13:25:46;7.80;94.90
31661;DHT22;18267;52.234;7.444;2023-04-03T13:28:17;7.80;94.30
31661;DHT22;18267;52.234;7.444;2023-04-03T13:31:01;7.80;93.50
31661;DHT22;18267;52.234;7.444;2023-04-03T13:33:29;7.90;93.70
31661;DHT22;18267;52.234;7.444;2023-04-03T13:36:08;7.80;93.50
31661;DHT22;18267;52.234;7.444;2023-04-03T13:38:35;7.70;94.20
31661;DHT22;18267;52.234;7.444;2023-04-03T13:41:21;7.60;93.20
31661;DHT22;18267;52.234;7.444;2023-04-03T13:43:48;7.60;94.00
31661;DHT22;18267;52.234;7.444;2023-04-03T13:48:52;7.70;94.00
31661;DHT22;18267;52.234;7.444;2023-04-03T13:51:22;7.80;94.40
31661;DHT22;18267;52.234;7.444;2023-04-03T13:56:25;8.10;93.10
31661;DHT22;18267;52.234;7.444;2023-04-03T13:58:58;8.20;93.00
31661;DHT22;18267;52.234;7.444;2023-04-03T14:01:25;8.30;92.60
31661;DHT22;18267;52.234;7.444;2023-04-03T14:06:20;8.50;93.70
31661;DHT22;18267;52.234;7.444;2023-04-03T14:08:47;8.60;92.80
31661;DHT22;18267;52.234;7.444;2023-04-03T14:11:18;8.40;93.90
31661;DHT22;18267;52.234;7.444;2023-04-03T14:13:45;8.30;94.30
31661;DHT22;18267;52.234;7.444;2023-04-03T14:16:23;8.00;94.20
31661;DHT22;18267;52.234;7.444;2023-04-03T14:18:50;7.90;94.50
31661;DHT22;18267;52.234;7.444;2023-04-03T14:21:18;7.90;94.40
31661;DHT22;18267;52.234;7.444;2023-04-03T14:23:49;8.00;95.00
31661;DHT22;18267;52.234;7.444;2023-04-03T14:26:18;8.00;94.30
31661;DHT22;18267;52.234;7.444;2023-04-03T14:28:50;8.00;93.50
31661;DHT22;18267;52.234;7.444;2023-04-03T14:31:17;8.10;93.20
31661;DHT22;18267;52.234;7.444;2023-04-03T14:33:43;8.10;93.20
31661;DHT22;18267;52.234;7.444;2023-04-03T14:36:30;8.00;93.40
31661;DHT22;18267;52.234;7.444;2023-04-03T14:38:56;8.20;92.80
31661;DHT22;18267;52.234;7.444;2023-04-03T14:41:24;8.20;92.60
31661;DHT22;18267;52.234;7.444;2023-04-03T14:43:50;8.10;92.90
31661;DHT22;18267;52.234;7.444;2023-04-03T14:46:31;8.20;93.40
31661;DHT22;18267;52.234;7.444;2023-04-03T14:48:59;8.30;93.10
31661;DHT22;18267;52.234;7.444;2023-04-03T14:51:33;8.40;93.20
31661;DHT22;18267;52.234;7.444;2023-04-03T14:53:59;8.50;92.40
31661;DHT22;18267;52.234;7.444;2023-04-03T14:56:28;8.50;92.10
31661;DHT22;18267;52.234;7.444;2023-04-03T14:58:59;8.50;91.60
31661;DHT22;18267;52.234;7.444;2023-04-03T15:01:28;8.50;91.90
31661;DHT22;18267;52.234;7.444;2023-04-03T15:03:54;8.50;91.50
31661;DHT22;18267;52.234;7.444;2023-04-03T15:06:20;8.40;92.90
31661;DHT22;18267;52.234;7.444;2023-04-03T15:08:47;8.40;93.20
31661;DHT22;18267;52.234;7.444;2023-04-03T15:11:13;8.50;92.70
31661;DHT22;18267;52.234;7.444;2023-04-03T15:13:39;8.50;92.70
31661;DHT22;18267;52.234;7.444;2023-04-03T15:16:17;8.50;91.70
31661;DHT22;18267;52.234;7.444;2023-04-03T15:18:44;8.40;91.80
31661;DHT22;18267;52.234;7.444;2023-04-03T15:21:10;8.30;92.30
31661;DHT22;18267;52.234;7.444;2023-04-03T15:23:37;8.20;92.70
31661;DHT22;18267;52.234;7.444;2023-04-03T15:26:03;8.20;92.40
31661;DHT22;18267;52.234;7.444;2023-04-03T15:28:34;8.20;91.80
31661;DHT22;18267;52.234;7.444;2023-04-03T15:31:01;8.20;91.40
31661;DHT22;18267;52.234;7.444;2023-04-03T15:33:27;8.30;91.80
31661;DHT22;18267;52.234;7.444;2023-04-03T15:35:53;8.30;91.30
31661;DHT22;18267;52.234;7.444;2023-04-03T15:38:19;8.40;91.80
31661;DHT22;18267;52.234;7.444;2023-04-03T15:40:45;8.50;91.60
31661;DHT22;18267;52.234;7.444;2023-04-03T15:43:12;8.50;90.70
31661;DHT22;18267;52.234;7.444;2023-04-03T15:45:38;8.40;90.80
31661;DHT22;18267;52.234;7.444;2023-04-03T15:48:04;8.40;91.10
31661;DHT22;18267;52.234;7.444;2023-04-03T15:50:31;8.40;91.80
31661;DHT22;18267;52.234;7.444;2023-04-03T15:52:57;8.40;92.50
31661;DHT22;18267;52.234;7.444;2023-04-03T15:55:30;8.40;92.30
31661;DHT22;18267;52.234;7.444;2023-04-03T15:57:56;8.30;91.80
31661;DHT22;18267;52.234;7.444;2023-04-03T16:00:23;8.20;91.20
31661;DHT22;18267;52.234;7.444;2023-04-03T16:03:02;8.20;91.80
31661;DHT22;18267;52.234;7.444;2023-04-03T16:05:30;8.30;91.70
31661;DHT22;18267;52.234;7.444;2023-04-03T16:07:57;8.30;91.60
31661;DHT22;18267;52.234;7.444;2023-04-03T16:10:24;8.40;90.80
31661;DHT22;18267;52.234;7.444;2023-04-03T16:12:50;8.30;90.70
31661;DHT22;18267;52.234;7.444;2023-04-03T16:15:16;8.30;91.30
31661;DHT22;18267;52.234;7.444;2023-04-03T16:17:41;8.30;91.60
31661;DHT22;18267;52.234;7.444;2023-04-03T16:20:14;8.40;90.90
31661;DHT22;18267;52.234;7.444;2023-04-03T16:22:40;8.40;91.00
31661;DHT22;18267;52.234;7.444;2023-04-03T16:25:07;8.40;91.30
31661;DHT22;18267;52.234;7.444;2023-04-03T16:27:37;8.40;91.30
31661;DHT22;18267;52.234;7.444;2023-04-03T16:30:04;8.40;91.70
31661;DHT22;18267;52.234;7.444;2023-04-03T16:32:31;8.40;91.70
31661;DHT22;18267;52.234;7.444;2023-04-03T16:34:58;8.40;91.80
31661;DHT22;18267;52.234;7.444;2023-04-03T16:37:25;8.30;90.90
31661;DHT22;18267;52.234;7.444;2023-04-03T16:39:51;8.10;91.20
31661;DHT22;18267;52.234;7.444;2023-04-03T16:42:18;8.00;91.50
31661;DHT22;18267;52.234;7.444;2023-04-03T16:44:49;8.00;91.60
31661;DHT22;18267;52.234;7.444;2023-04-03T16:47:16;7.80;92.20
31661;DHT22;18267;52.234;7.444;2023-04-03T16:49:46;7.80;92.50
31661;DHT22;18267;52.234;7.444;2023-04-03T16:52:12;7.80;92.20
31661;DHT22;18267;52.234;7.444;2023-04-03T16:54:39;7.80;92.80
31661;DHT22;18267;52.234;7.444;2023-04-03T16:57:05;7.90;92.50
31661;DHT22;18267;52.234;7.444;2023-04-03T16:59:30;7.80;92.30
31661;DHT22;18267;52.234;7.444;2023-04-03T17:01:56;7.90;92.70
31661;DHT22;18267;52.234;7.444;2023-04-03T17:04:21;7.80;92.10
31661;DHT22;18267;52.234;7.444;2023-04-03T17:06:47;7.90;92.00
31661;DHT22;18267;52.234;7.444;2023-04-03T17:09:12;7.90;91.60
31661;DHT22;18267;52.234;7.444;2023-04-03T17:11:40;7.90;91.50
31661;DHT22;18267;52.234;7.444;2023-04-03T17:14:06;7.90;91.30
31661;DHT22;18267;52.234;7.444;2023-04-03T17:16:33;7.90;91.50
31661;DHT22;18267;52.234;7.444;2023-04-03T17:19:00;7.90;91.70
31661;DHT22;18267;52.234;7.444;2023-04-03T17:21:26;7.90;91.80
31661;DHT22;18267;52.234;7.444;2023-04-03T17:23:58;7.80;92.00
31661;DHT22;18267;52.234;7.444;2023-04-03T17:26:26;7.80;92.50
31661;DHT22;18267;52.234;7.444;2023-04-03T17:28:52;7.70;93.00
31661;DHT22;18267;52.234;7.444;2023-04-03T17:31:18;7.80;92.50
31661;DHT22;18267;52.234;7.444;2023-04-03T17:33:44;7.80;92.00